Terminal Aerodrome Forecast
Issued by NWS

Home | Current Version | Previous Version | Text Only | Print | Product List | Glossary On
Versions: 1 2 3 4 5 6 7 8 9 10 11 12 13
000
FTUS46 KSEW 301100 AAA
TAFCLM
TAF AMD
KCLM 301151Z 3012/3112 25003KT 1/2SM FG VV002
     FM301600 VRB03KT P6SM SCT008 BKN070
     FM302200 VRB03KT P6SM SCT045 BKN100 OVC200
     FM310000 29005KT P6SM -RA OVC050
     FM310600 27014G22KT P6SM -RA OVC025=

USA.gov is the U.S. government's official web portal to all federal, state and local government web resources and services.